Terminal Aerodrome Forecast
Issued by NWS

Current Version | Previous Version | Text Only | Print | Product List | Glossary On
Versions: 1 2 3 4 5 6 7 8 9 10 11 12 13 14 15 16 17 18 19 20 21 22 23 24 25 26 27
000
FTUS44 KTSA 241700
TAFBVO
TAF
KBVO 241740Z 2418/2518 17008KT P6SM VCSH BKN015 OVC050
      TEMPO 2418/2422 4SM -RA OVC015
     FM242200 18010KT P6SM -RA SCT020 OVC050
      TEMPO 2422/2424 4SM -TSRA BR OVC015CB
     FM250000 17008KT P6SM -RA BKN020 OVC040
     FM250900 16004KT 5SM BR VCSH BKN030 OVC050=

USA.gov is the U.S. government's official web portal to all federal, state and local government web resources and services.